Time;durP1;ratioP1;P1;durP2;ratioP2;P2;SDS_P1;SDS_P2;PMS_P1;PMS_P2;Temp;Humidity;BMP_temperature;BMP_pressure;BME280_temperature;BME280_humidity;BME280_pressure;Samples;Min_cycle;Max_cycle;Signal;HPM_P1;HPM_P2
2021/12/26 00:04:58;;;;;;;73.03;37.23;;;10.80;90.60;;;;;;10473764;28;20745;-82
2021/12/26 00:10:02;;;;;;;81.90;38.93;;;10.60;90.80;;;;;;10467261;28;20296;-82
2021/12/26 00:15:06;;;;;;;77.13;39.43;;;10.60;90.80;;;;;;10450332;28;20644;-82
2021/12/26 00:20:10;;;;;;;89.33;44.60;;;10.30;91.00;;;;;;10450090;28;20274;-82
2021/12/26 00:25:13;;;;;;;87.50;40.63;;;10.20;90.80;;;;;;10466719;28;20239;-82
2021/12/26 00:30:18;;;;;;;81.37;39.53;;;10.30;91.10;;;;;;10450552;28;20761;-82
2021/12/26 00:35:23;;;;;;;81.33;41.17;;;10.50;91.00;;;;;;10422734;28;20709;-82
2021/12/26 00:40:26;;;;;;;79.97;40.40;;;10.70;90.40;;;;;;10390701;28;20244;-82
2021/12/26 00:45:29;;;;;;;95.50;45.17;;;10.70;90.30;;;;;;10390516;28;20700;-82
2021/12/26 00:50:33;;;;;;;77.53;40.23;;;10.40;90.20;;;;;;10397434;28;20273;-82
2021/12/26 00:55:36;;;;;;;77.77;40.43;;;10.10;91.30;;;;;;10407139;28;20243;-82
2021/12/26 01:00:42;;;;;;;92.67;46.17;;;10.00;91.40;;;;;;10402510;28;20209;-82
2021/12/26 01:05:49;;;;;;;77.70;41.30;;;10.00;90.90;;;;;;10422945;28;20298;-81
2021/12/26 01:11:00;;;;;;;80.67;41.60;;;10.00;91.40;;;;;;10424303;28;20749;-82
2021/12/26 01:16:10;;;;;;;84.73;42.27;;;10.40;90.80;;;;;;10397336;28;20248;-82
2021/12/26 01:21:19;;;;;;;79.73;42.27;;;10.50;90.50;;;;;;10413748;28;20252;-82
2021/12/26 01:26:27;;;;;;;84.27;43.73;;;10.30;90.50;;;;;;10403479;28;20762;-82
2021/12/26 01:31:30;;;;;;;88.20;42.73;;;10.40;90.40;;;;;;10410581;28;20296;-82
2021/12/26 01:36:40;;;;;;;86.60;43.73;;;10.70;89.90;;;;;;10416916;28;20344;-82
2021/12/26 01:42:02;;;;;;;83.63;44.43;;;10.80;88.80;;;;;;10412505;28;20239;-82
2021/12/26 01:47:26;;;;;;;86.50;42.37;;;10.70;88.80;;;;;;10408896;28;20781;-82
2021/12/26 01:52:29;;;;;;;85.97;43.70;;;10.50;89.60;;;;;;10430108;28;20230;-82
2021/12/26 01:57:33;;;;;;;89.60;42.87;;;10.50;89.70;;;;;;10396839;28;20310;-82
2021/12/26 02:02:35;;;;;;;85.00;42.43;;;10.80;88.70;;;;;;10402341;28;20262;-82
2021/12/26 02:07:38;;;;;;;84.20;45.90;;;10.70;88.30;;;;;;10437329;28;20741;-82
2021/12/26 02:12:41;;;;;;;90.43;43.60;;;10.80;88.00;;;;;;10394321;28;20231;-82
2021/12/26 02:17:44;;;;;;;79.60;41.27;;;10.80;87.50;;;;;;10434693;28;20230;-82
2021/12/26 02:22:53;;;;;;;89.17;44.20;;;10.70;88.00;;;;;;10380796;28;20775;-82
2021/12/26 02:27:55;;;;;;;82.47;41.80;;;10.70;87.80;;;;;;10398334;28;20312;-82
2021/12/26 02:33:00;;;;;;;87.43;43.87;;;10.80;87.50;;;;;;10421285;28;20388;-82
2021/12/26 02:38:03;;;;;;;86.87;44.20;;;10.90;87.00;;;;;;10470893;28;20253;-82
2021/12/26 02:43:08;;;;;;;91.13;43.13;;;10.90;86.30;;;;;;10435371;28;20239;-82
2021/12/26 02:48:11;;;;;;;87.00;43.57;;;10.80;86.90;;;;;;10435378;28;20252;-82
2021/12/26 02:53:20;;;;;;;80.80;41.67;;;10.80;87.00;;;;;;10435210;28;20257;-82
2021/12/26 02:58:23;;;;;;;86.43;43.57;;;10.80;86.60;;;;;;10435002;28;20238;-82
2021/12/26 03:03:26;;;;;;;83.00;42.07;;;10.40;86.60;;;;;;10419183;28;20573;-82
2021/12/26 03:08:29;;;;;;;89.43;42.87;;;10.50;87.90;;;;;;10452848;28;20281;-82
2021/12/26 03:13:32;;;;;;;82.30;41.73;;;10.70;86.90;;;;;;10435412;28;20747;-82
2021/12/26 03:18:36;;;;;;;84.67;41.30;;;10.80;86.30;;;;;;10434191;28;20762;-82
2021/12/26 03:23:38;;;;;;;84.93;42.77;;;10.70;86.50;;;;;;10417821;28;20209;-82
2021/12/26 03:28:41;;;;;;;78.70;40.97;;;10.80;86.20;;;;;;10434102;28;20259;-82
2021/12/26 03:33:44;;;;;;;79.70;40.73;;;10.90;85.70;;;;;;10415372;28;20252;-82
2021/12/26 03:38:46;;;;;;;81.60;42.43;;;10.90;85.60;;;;;;10434297;28;20204;-82
2021/12/26 03:43:59;;;;;;;87.70;43.20;;;10.70;85.60;;;;;;10433877;28;20634;-82
2021/12/26 03:49:05;;;;;;;79.77;43.20;;;10.70;86.10;;;;;;10432678;28;20305;-82
2021/12/26 03:54:09;;;;;;;81.43;40.30;;;10.80;85.70;;;;;;10432845;28;20205;-82
2021/12/26 03:59:12;;;;;;;79.73;42.67;;;10.90;85.30;;;;;;10433151;28;20206;-82
2021/12/26 04:04:16;;;;;;;84.40;42.77;;;10.90;85.10;;;;;;10417095;28;20207;-82
2021/12/26 04:09:19;;;;;;;88.53;42.23;;;10.90;84.70;;;;;;10450870;28;20680;-82
2021/12/26 04:14:22;;;;;;;78.27;40.37;;;10.60;85.80;;;;;;10432763;28;20691;-82
2021/12/26 04:19:24;;;;;;;83.67;41.40;;;10.50;86.10;;;;;;10472367;28;20628;-82
2021/12/26 04:24:27;;;;;;;82.00;40.90;;;10.30;87.00;;;;;;10468246;28;20212;-82
2021/12/26 04:29:29;;;;;;;79.63;41.03;;;10.50;86.00;;;;;;10449630;28;20251;-82
2021/12/26 04:34:32;;;;;;;73.43;39.70;;;10.50;85.80;;;;;;10431833;28;20393;-82
2021/12/26 04:39:35;;;;;;;76.63;39.77;;;10.60;85.80;;;;;;10435197;28;20283;-82
2021/12/26 04:44:38;;;;;;;76.83;39.83;;;10.50;85.90;;;;;;10438847;28;20899;-82
2021/12/26 04:50:03;;;;;;;74.37;40.30;;;10.70;85.30;;;;;;10461643;28;20247;-82
2021/12/26 04:55:19;;;;;;;78.93;41.90;;;10.30;85.70;;;;;;10438800;28;20269;-82
2021/12/26 05:00:26;;;;;;;98.00;50.67;;;10.20;85.80;;;;;;10438639;28;20712;-82
2021/12/26 05:05:29;;;;;;;77.77;39.70;;;8.70;81.80;;;;;;10450763;28;20304;-82
2021/12/26 05:10:32;;;;;;;72.80;39.57;;;8.70;91.40;;;;;;10404775;28;20328;-82
2021/12/26 05:15:35;;;;;;;73.47;39.63;;;9.80;90.00;;;;;;10444345;28;20575;-82
2021/12/26 05:20:38;;;;;;;78.63;39.33;;;10.20;87.10;;;;;;10444876;28;20638;-82
2021/12/26 05:25:41;;;;;;;78.00;40.03;;;10.40;86.30;;;;;;10444551;28;20234;-81
2021/12/26 05:30:44;;;;;;;76.27;40.50;;;10.60;85.40;;;;;;10444542;28;21037;-82
2021/12/26 05:35:53;;;;;;;74.43;39.33;;;10.60;85.20;;;;;;10443739;28;20257;-82
2021/12/26 05:40:57;;;;;;;79.73;39.13;;;10.50;85.30;;;;;;10444304;28;20215;-81
2021/12/26 05:46:00;;;;;;;75.70;38.30;;;10.50;84.70;;;;;;10444075;28;20682;-82
2021/12/26 05:51:04;;;;;;;69.40;37.10;;;10.60;84.40;;;;;;10441225;28;20246;-82
2021/12/26 05:56:16;;;;;;;74.40;39.30;;;10.70;83.90;;;;;;10504092;28;20599;-82
2021/12/26 06:01:26;;;;;;;69.60;36.40;;;10.70;83.70;;;;;;10441696;28;20238;-82
2021/12/26 06:06:30;;;;;;;70.97;38.20;;;10.70;83.40;;;;;;10437045;28;20277;-81
2021/12/26 06:11:33;;;;;;;73.07;38.70;;;10.50;83.90;;;;;;10437245;28;20238;-82
2021/12/26 06:16:36;;;;;;;70.10;38.10;;;10.50;83.80;;;;;;10436559;28;20234;-82
2021/12/26 06:21:44;;;;;;;73.73;36.90;;;10.70;83.30;;;;;;10454232;28;20208;-82
2021/12/26 06:27:05;;;;;;;71.73;37.67;;;10.90;82.90;;;;;;10471596;28;20242;-82
2021/12/26 06:32:31;;;;;;;71.33;38.07;;;10.80;82.70;;;;;;10435858;28;20252;-81
2021/12/26 06:37:56;;;;;;;67.47;36.17;;;10.60;82.70;;;;;;10454089;28;20283;-82
2021/12/26 06:43:17;;;;;;;69.13;35.77;;;10.60;83.00;;;;;;10468991;28;20548;-82
2021/12/26 06:48:39;;;;;;;72.60;38.03;;;10.60;83.00;;;;;;10471456;28;20248;-82
2021/12/26 06:53:42;;;;;;;70.47;36.93;;;10.80;82.50;;;;;;10435675;28;20277;-82
2021/12/26 06:58:44;;;;;;;62.87;35.87;;;10.70;82.80;;;;;;10435535;28;20204;-82
2021/12/26 07:03:47;;;;;;;69.70;37.70;;;10.60;82.50;;;;;;10434097;28;20282;-82
2021/12/26 07:08:53;;;;;;;68.60;35.40;;;10.70;82.20;;;;;;10435302;28;20313;-82
2021/12/26 07:13:57;;;;;;;69.70;37.67;;;10.70;81.80;;;;;;10453378;28;20563;-82
2021/12/26 07:19:00;;;;;;;68.40;35.60;;;10.60;81.90;;;;;;10442916;28;20699;-82
2021/12/26 07:24:10;;;;;;;77.00;39.73;;;10.60;82.10;;;;;;10388260;28;20259;-82
2021/12/26 07:29:14;;;;;;;66.80;36.20;;;10.60;82.00;;;;;;10433926;28;20250;-82
2021/12/26 07:34:17;;;;;;;72.33;34.37;;;10.50;82.10;;;;;;10433466;28;20246;-81
2021/12/26 07:39:20;;;;;;;68.80;35.50;;;10.50;82.20;;;;;;10417943;28;20306;-82
2021/12/26 07:44:22;;;;;;;67.67;35.33;;;10.70;81.70;;;;;;10455711;28;20211;-82
2021/12/26 07:49:44;;;;;;;71.37;36.47;;;10.20;82.40;;;;;;10461328;28;20720;-81
2021/12/26 07:55:11;;;;;;;70.90;35.20;;;10.40;82.40;;;;;;10420547;28;20745;-82
2021/12/26 08:00:33;;;;;;;61.03;34.77;;;10.30;82.50;;;;;;10448096;28;20617;-82
2021/12/26 08:05:44;;;;;;;67.00;35.17;;;10.10;82.30;;;;;;10434304;28;20412;-82
2021/12/26 08:10:57;;;;;;;66.03;35.43;;;10.00;83.80;;;;;;10432990;28;20313;-82
2021/12/26 08:16:00;;;;;;;72.73;35.60;;;10.50;82.10;;;;;;10421396;28;20227;-82
2021/12/26 08:21:03;;;;;;;64.80;36.00;;;10.70;81.20;;;;;;10439426;28;20273;-81
2021/12/26 08:26:05;;;;;;;67.90;35.40;;;10.80;80.80;;;;;;10438046;28;20284;-82
2021/12/26 08:31:10;;;;;;;67.50;35.17;;;10.80;80.50;;;;;;10445692;28;20256;-81
2021/12/26 08:36:13;;;;;;;69.33;35.03;;;10.90;80.40;;;;;;10447885;28;20250;-82
2021/12/26 08:41:15;;;;;;;68.63;36.57;;;11.00;79.90;;;;;;10462443;28;20624;-82
2021/12/26 08:46:18;;;;;;;68.87;36.57;;;10.80;80.30;;;;;;10434689;28;20234;-82
2021/12/26 08:51:20;;;;;;;66.67;35.50;;;10.80;80.70;;;;;;10437719;28;20291;-82
2021/12/26 08:56:23;;;;;;;61.70;34.80;;;10.60;81.00;;;;;;10455490;28;20258;-82
2021/12/26 09:01:26;;;;;;;67.10;35.63;;;10.60;81.20;;;;;;10438479;28;20262;-82
2021/12/26 09:06:32;;;;;;;61.10;35.10;;;10.50;81.70;;;;;;10447333;28;20762;-81
2021/12/26 09:11:35;;;;;;;65.33;35.27;;;10.50;81.40;;;;;;10436362;28;20279;-80
2021/12/26 09:16:37;;;;;;;69.90;34.93;;;10.70;81.00;;;;;;10448512;28;20277;-82
2021/12/26 09:21:40;;;;;;;63.37;34.43;;;10.70;80.90;;;;;;10449368;28;20687;-81
2021/12/26 09:26:42;;;;;;;66.23;35.70;;;10.60;81.00;;;;;;10430989;28;20913;-81
2021/12/26 09:31:46;;;;;;;75.77;40.20;;;10.40;81.80;;;;;;10444625;28;20251;-81
2021/12/26 09:36:49;;;;;;;70.23;35.13;;;10.20;82.00;;;;;;10452686;28;20248;-81
2021/12/26 09:41:52;;;;;;;60.03;33.60;;;9.70;83.20;;;;;;10438283;28;20235;-81
2021/12/26 09:46:55;;;;;;;64.80;36.53;;;9.70;84.40;;;;;;10455233;28;20289;-81
2021/12/26 09:51:57;;;;;;;68.63;38.63;;;9.90;83.50;;;;;;10445616;28;20259;-81
2021/12/26 09:57:01;;;;;;;63.67;36.80;;;10.10;83.30;;;;;;10458859;28;20242;-81
2021/12/26 10:02:09;;;;;;;59.40;35.10;;;9.90;84.30;;;;;;10457656;28;20237;-81
2021/12/26 10:07:23;;;;;;;60.17;35.00;;;10.00;84.50;;;;;;10444609;28;20250;-82
2021/12/26 10:12:26;;;;;;;65.23;36.77;;;10.20;83.30;;;;;;10455603;28;20235;-81
2021/12/26 10:17:31;;;;;;;65.10;35.47;;;10.10;83.00;;;;;;10437645;28;20243;-82
2021/12/26 10:22:34;;;;;;;65.40;35.67;;;10.40;83.40;;;;;;10437166;28;20273;-81
2021/12/26 10:27:37;;;;;;;67.47;36.20;;;10.40;83.00;;;;;;10460033;28;20264;-82
2021/12/26 10:32:41;;;;;;;66.20;35.23;;;10.60;82.60;;;;;;10420460;28;20595;-81
2021/12/26 10:37:46;;;;;;;77.80;39.33;;;10.30;83.40;;;;;;10454652;28;20640;-81
2021/12/26 10:42:52;;;;;;;64.23;36.90;;;10.30;81.90;;;;;;10419602;28;20681;-81
2021/12/26 10:47:58;;;;;;;66.30;35.20;;;10.30;83.10;;;;;;10436401;28;20278;-81
2021/12/26 10:53:04;;;;;;;63.37;34.20;;;10.20;83.90;;;;;;10453793;28;20212;-81
2021/12/26 10:58:14;;;;;;;87.37;45.93;;;10.40;83.60;;;;;;10453692;28;20208;-81
2021/12/26 11:03:22;;;;;;;63.73;35.43;;;9.60;78.10;;;;;;10434373;28;20754;-82
2021/12/26 11:08:30;;;;;;;72.57;36.37;;;9.50;86.30;;;;;;10452837;28;20300;-81
2021/12/26 11:13:32;;;;;;;88.23;43.80;;;8.90;86.90;;;;;;10452976;28;20289;-81
2021/12/26 11:18:36;;;;;;;74.73;39.87;;;8.20;83.00;;;;;;10452697;28;20274;-81
2021/12/26 11:23:41;;;;;;;62.53;38.00;;;8.10;87.80;;;;;;10433770;28;20239;-83
2021/12/26 11:28:49;;;;;;;68.47;35.50;;;8.80;83.10;;;;;;10451887;28;20254;-81
2021/12/26 11:33:59;;;;;;;103.67;51.70;;;8.90;87.10;;;;;;10434922;28;20364;-81
2021/12/26 11:39:06;;;;;;;94.43;45.93;;;8.20;81.00;;;;;;10418379;28;20265;-82
2021/12/26 11:44:54;;;;;;;136.73;72.27;;;7.10;83.60;;;;;;10403938;28;20216;-81
2021/12/26 11:50:31;;;;;;;100.17;47.60;;;6.60;90.60;;;;;;10411682;28;20258;-82
2021/12/26 11:56:01;;;;;;;87.40;47.70;;;6.70;93.20;;;;;;10410617;28;20200;-81
2021/12/26 12:01:05;;;;;;;70.00;38.47;;;6.90;94.50;;;;;;10443289;28;20239;-81
2021/12/26 12:06:22;;;;;;;69.40;38.73;;;6.90;93.60;;;;;;10406671;28;20270;-81
2021/12/26 12:11:24;;;;;;;80.60;41.10;;;7.10;94.80;;;;;;10409988;28;20267;-82
2021/12/26 12:16:30;;;;;;;91.20;42.97;;;7.20;92.90;;;;;;10436720;28;20243;-81
2021/12/26 12:21:44;;;;;;;90.37;45.23;;;6.90;92.50;;;;;;10411091;28;20569;-81
2021/12/26 12:27:09;;;;;;;77.27;38.97;;;7.40;93.10;;;;;;10416562;28;20281;-81
2021/12/26 12:32:14;;;;;;;58.63;32.80;;;7.30;94.90;;;;;;10394065;28;20267;-82
2021/12/26 12:37:35;;;;;;;64.27;34.40;;;8.30;94.30;;;;;;10408319;28;20239;-81
2021/12/26 12:42:40;;;;;;;61.00;33.23;;;10.10;89.60;;;;;;10408682;28;20238;-81
2021/12/26 12:47:43;;;;;;;62.83;34.20;;;10.90;85.50;;;;;;10390450;28;20243;-82
2021/12/26 12:52:51;;;;;;;57.50;32.47;;;11.00;84.40;;;;;;10391244;28;20262;-82
2021/12/26 12:57:56;;;;;;;65.23;35.83;;;10.80;84.80;;;;;;10390711;28;20212;-82
2021/12/26 13:03:00;;;;;;;63.43;37.70;;;10.60;83.30;;;;;;10414239;28;20208;-81
2021/12/26 13:08:15;;;;;;;145.30;77.63;;;10.10;85.30;;;;;;10399285;28;20247;-81
2021/12/26 13:13:20;;;;;;;115.43;58.17;;;0.50;62.20;;;;;;10403091;28;20639;-88
2021/12/26 13:18:26;;;;;;;117.87;58.90;;;3.70;99.90;;;;;;10416024;28;20739;-89
2021/12/26 13:23:30;;;;;;;118.63;58.83;;;7.90;78.60;;;;;;10398641;28;20235;-88
2021/12/26 13:28:35;;;;;;;109.17;57.10;;;8.40;67.20;;;;;;10417102;28;20255;-89
2021/12/26 13:33:39;;;;;;;113.43;60.47;;;8.10;64.20;;;;;;10399440;28;20285;-89
2021/12/26 13:38:42;;;;;;;111.70;56.93;;;7.20;65.70;;;;;;10417445;28;20251;-89
2021/12/26 13:43:46;;;;;;;115.90;62.37;;;6.80;67.70;;;;;;10399995;28;20208;-89
2021/12/26 13:48:55;;;;;;;146.40;76.00;;;6.10;67.00;;;;;;10399520;28;20252;-89
2021/12/26 13:54:24;;;;;;;151.97;71.20;;;3.20;67.70;;;;;;10417039;28;20910;-89
2021/12/26 13:59:39;;;;;;;134.50;64.87;;;2.50;85.50;;;;;;10383436;28;20208;-89
2021/12/26 14:04:48;;;;;;;124.53;59.03;;;3.50;87.00;;;;;;10400022;28;20708;-89
2021/12/26 14:09:55;;;;;;;109.50;58.57;;;5.10;83.20;;;;;;10417524;28;20220;-91
2021/12/26 14:15:29;;;;;;;105.93;57.63;;;6.10;81.40;;;;;;10427506;28;20558;-90
2021/12/26 14:20:46;;;;;;;118.97;55.83;;;6.40;78.50;;;;;;10402199;28;20227;-89
2021/12/26 14:26:10;;;;;;;101.40;54.53;;;7.00;79.50;;;;;;10400334;28;20598;-90
2021/12/26 14:31:39;;;;;;;115.50;60.77;;;7.50;77.50;;;;;;10417094;28;20355;-89
2021/12/26 14:37:01;;;;;;;116.93;61.13;;;6.80;78.90;;;;;;10441538;28;20231;-89
2021/12/26 14:42:15;;;;;;;107.37;57.97;;;7.10;78.30;;;;;;10486378;28;20242;-89
2021/12/26 14:47:26;;;;;;;133.37;64.40;;;7.20;79.70;;;;;;10506811;28;20234;-89
2021/12/26 14:52:30;;;;;;;108.20;54.13;;;7.50;76.60;;;;;;10487168;28;20214;-89
2021/12/26 14:57:37;;;;;;;102.00;54.30;;;7.40;79.40;;;;;;10488796;28;20226;-89
2021/12/26 15:02:45;;;;;;;120.47;63.20;;;7.10;80.00;;;;;;10486596;28;20211;-90
2021/12/26 15:07:54;;;;;;;121.50;63.00;;;6.90;78.90;;;;;;10472007;28;20243;-90
2021/12/26 15:12:58;;;;;;;108.67;59.93;;;5.80;81.70;;;;;;10470543;28;20239;-90
2021/12/26 15:18:11;;;;;;;126.30;63.27;;;5.10;82.80;;;;;;10489846;28;20206;-89
2021/12/26 15:23:33;;;;;;;101.97;54.13;;;5.30;83.10;;;;;;10507355;28;20191;-90
2021/12/26 15:39:38;;;;;;;112.57;57.33;;;0.60;99.90;;;;;;9633196;22;10002001;-79
2021/12/26 15:44:41;;;;;;;100.87;52.50;;;3.40;97.20;;;;;;10378331;28;20215;-78
2021/12/26 15:49:43;;;;;;;101.93;51.37;;;6.10;90.70;;;;;;10407253;28;20248;-78
2021/12/26 15:54:46;;;;;;;125.37;61.03;;;7.00;85.90;;;;;;10396378;28;20293;-78
2021/12/26 15:59:49;;;;;;;94.93;49.50;;;7.00;80.10;;;;;;10351860;28;20220;-79
2021/12/26 16:04:51;;;;;;;109.33;55.10;;;7.80;85.20;;;;;;10401776;28;20297;-78
2021/12/26 16:09:54;;;;;;;92.30;48.43;;;7.20;82.40;;;;;;10391592;28;20301;-78
2021/12/26 16:14:57;;;;;;;98.73;50.67;;;8.10;86.60;;;;;;10397988;28;20240;-79
2021/12/26 16:20:01;;;;;;;85.60;48.37;;;9.20;83.90;;;;;;10369214;28;20296;-78
2021/12/26 16:25:10;;;;;;;91.13;45.63;;;10.00;81.80;;;;;;10368077;28;20291;-78
2021/12/26 16:30:15;;;;;;;88.20;47.10;;;10.30;81.10;;;;;;10391740;28;20779;-78
2021/12/26 16:35:19;;;;;;;91.97;49.73;;;10.40;81.20;;;;;;10380140;28;20287;-78
2021/12/26 16:40:44;;;;;;;83.60;48.30;;;9.70;80.90;;;;;;10383168;28;20226;-79
2021/12/26 16:45:47;;;;;;;85.00;46.03;;;10.20;83.90;;;;;;10391134;28;20605;-78
2021/12/26 16:50:50;;;;;;;85.17;44.03;;;10.80;82.50;;;;;;10390611;28;20290;-79
2021/12/26 16:55:53;;;;;;;90.93;47.97;;;10.90;82.00;;;;;;10392224;28;20308;-79
2021/12/26 17:00:55;;;;;;;80.60;43.83;;;10.90;82.90;;;;;;10375714;28;20306;-79
2021/12/26 17:05:58;;;;;;;80.27;42.33;;;11.20;82.70;;;;;;10391114;28;20208;-79
2021/12/26 17:11:01;;;;;;;85.20;45.57;;;11.40;82.30;;;;;;10382747;28;20264;-79
2021/12/26 17:16:04;;;;;;;80.93;42.87;;;11.30;82.40;;;;;;10381719;28;20245;-79
2021/12/26 17:21:06;;;;;;;79.30;41.80;;;11.20;83.50;;;;;;10376778;28;20721;-79
2021/12/26 17:26:13;;;;;;;76.37;41.47;;;11.30;83.40;;;;;;10390746;28;20220;-79
2021/12/26 17:31:16;;;;;;;79.37;43.57;;;11.40;83.70;;;;;;10390079;28;20819;-79
2021/12/26 17:36:19;;;;;;;76.10;42.57;;;11.50;83.40;;;;;;10377554;28;20241;-79
2021/12/26 17:41:22;;;;;;;76.77;43.57;;;11.60;83.40;;;;;;10356631;28;20303;-79
2021/12/26 17:46:25;;;;;;;77.63;42.17;;;11.60;83.60;;;;;;10390506;28;20217;-78
2021/12/26 17:51:28;;;;;;;89.27;43.97;;;11.50;83.70;;;;;;10388719;28;20263;-79
2021/12/26 17:56:30;;;;;;;76.30;44.17;;;11.60;83.80;;;;;;10397263;28;20200;-79
2021/12/26 18:01:33;;;;;;;89.63;44.60;;;11.50;84.50;;;;;;10376218;28;20315;-79
2021/12/26 18:06:38;;;;;;;84.53;44.70;;;11.50;84.80;;;;;;10367514;28;20242;-79
2021/12/26 18:11:41;;;;;;;84.97;45.03;;;11.40;85.40;;;;;;10415228;28;20258;-78
2021/12/26 18:16:44;;;;;;;77.60;44.17;;;11.30;85.80;;;;;;10396397;28;20209;-79
2021/12/26 18:21:46;;;;;;;84.77;45.80;;;11.30;85.90;;;;;;10383377;28;20330;-79
2021/12/26 18:26:49;;;;;;;84.57;45.27;;;11.30;86.00;;;;;;10355756;28;20294;-79
2021/12/26 18:31:51;;;;;;;90.07;47.17;;;11.40;86.00;;;;;;10355486;28;20336;-79
2021/12/26 18:36:54;;;;;;;80.67;42.77;;;11.50;85.80;;;;;;10354888;28;20457;-79
2021/12/26 18:42:04;;;;;;;86.40;45.93;;;11.30;86.30;;;;;;10402681;28;20264;-79
2021/12/26 18:47:14;;;;;;;84.40;44.73;;;11.30;86.60;;;;;;10390643;28;20207;-79
2021/12/26 18:52:20;;;;;;;87.03;46.10;;;11.30;86.70;;;;;;10371478;28;20264;-79
2021/12/26 18:57:23;;;;;;;87.77;46.20;;;11.40;86.60;;;;;;10337876;28;20697;-79
2021/12/26 19:02:25;;;;;;;93.43;47.90;;;11.30;86.90;;;;;;10364407;28;20244;-79
2021/12/26 19:07:28;;;;;;;86.87;46.00;;;11.30;86.90;;;;;;9693858;28;10000782;-79
2021/12/26 19:12:30;;;;;;;84.10;47.13;;;11.10;87.30;;;;;;10385538;28;20751;-79
2021/12/26 19:17:33;;;;;;;87.97;47.50;;;11.20;87.80;;;;;;10382824;28;20734;-79
2021/12/26 19:22:36;;;;;;;93.40;47.63;;;11.20;87.40;;;;;;10407068;28;20286;-78
2021/12/26 19:27:40;;;;;;;92.30;48.30;;;11.40;86.60;;;;;;10398224;28;20241;-79
2021/12/26 19:32:44;;;;;;;90.23;45.50;;;11.40;86.10;;;;;;10376726;28;20652;-78
2021/12/26 19:37:47;;;;;;;91.43;46.83;;;11.50;85.80;;;;;;10406757;28;20237;-78
2021/12/26 19:42:50;;;;;;;78.23;44.90;;;11.30;86.60;;;;;;10400403;28;20266;-78
2021/12/26 19:47:52;;;;;;;85.30;48.83;;;11.20;86.90;;;;;;10388564;28;20268;-78
2021/12/26 19:52:55;;;;;;;88.90;48.00;;;11.30;86.80;;;;;;10406825;28;20259;-79
2021/12/26 19:57:57;;;;;;;233.83;113.33;;;11.30;86.70;;;;;;10404375;28;20236;-78
2021/12/26 20:03:00;;;;;;;248.10;108.43;;;-3.30;36.90;;;;;;10388325;28;20706;-77
2021/12/26 20:08:04;;;;;;;112.90;53.43;;;-12.70;73.90;;;;;;10387948;28;20723;-78
2021/12/26 20:13:07;;;;;;;124.77;56.27;;;0.80;99.90;;;;;;10382249;28;20270;-78
2021/12/26 20:18:09;;;;;;;109.93;55.17;;;5.30;99.90;;;;;;10385094;28;20707;-77
2021/12/26 20:23:12;;;;;;;116.53;56.57;;;7.00;99.90;;;;;;10364315;28;20252;-78
2021/12/26 20:28:15;;;;;;;120.23;57.73;;;8.70;99.90;;;;;;10346835;28;20243;-78
2021/12/26 20:33:19;;;;;;;111.07;54.83;;;9.20;99.90;;;;;;10363939;28;20251;-78
2021/12/26 20:38:22;;;;;;;104.97;55.33;;;9.70;97.40;;;;;;10348145;28;20695;-78
2021/12/26 20:43:24;;;;;;;108.57;54.77;;;10.30;94.40;;;;;;10368001;28;20227;-78
2021/12/26 20:48:27;;;;;;;107.50;57.47;;;10.50;92.70;;;;;;10404691;28;20269;-78
2021/12/26 20:53:29;;;;;;;113.73;55.57;;;10.70;91.70;;;;;;10404323;28;20313;-78
2021/12/26 20:58:32;;;;;;;197.03;99.47;;;10.90;90.80;;;;;;10390130;28;20232;-80
2021/12/26 21:03:35;;;;;;;185.73;84.57;;;-1.70;35.70;;;;;;10377657;28;20609;-80
2021/12/26 21:08:39;;;;;;;138.50;53.67;;;-12.70;73.70;;;;;;10339786;28;20269;-81
2021/12/26 21:13:41;;;;;;;165.47;76.43;;;-13.00;99.90;;;;;;10375175;28;20262;-80
2021/12/26 21:18:44;;;;;;;160.23;72.37;;;1.20;99.90;;;;;;10363774;28;20692;-81
2021/12/26 21:23:48;;;;;;;144.87;68.80;;;5.50;92.00;;;;;;10369987;28;20258;-81
2021/12/26 21:28:51;;;;;;;142.37;68.47;;;7.10;66.10;;;;;;10380520;28;20236;-81
2021/12/26 21:33:53;;;;;;;138.20;69.87;;;7.90;60.80;;;;;;10353077;28;20260;-81
2021/12/26 21:38:56;;;;;;;138.00;69.43;;;8.60;60.30;;;;;;10358837;28;20644;-81
2021/12/26 21:44:01;;;;;;;135.37;70.37;;;9.00;60.50;;;;;;10062267;28;10000424;-82
2021/12/26 21:49:05;;;;;;;138.03;68.87;;;9.40;61.00;;;;;;10392128;28;20235;-81
2021/12/26 21:54:10;;;;;;;137.73;67.63;;;9.70;61.40;;;;;;10411258;28;20704;-81
2021/12/26 21:59:17;;;;;;;126.40;67.17;;;9.90;62.00;;;;;;10401564;28;20280;-81
2021/12/26 22:04:21;;;;;;;134.00;66.87;;;10.00;62.70;;;;;;10365261;28;20746;-81
2021/12/26 22:09:28;;;;;;;133.17;65.43;;;10.10;63.30;;;;;;10354074;28;20355;-81
2021/12/26 22:14:31;;;;;;;121.90;61.03;;;10.20;63.70;;;;;;10355740;28;20259;-81
2021/12/26 22:19:33;;;;;;;129.10;66.17;;;10.10;64.60;;;;;;10356161;28;20286;-81
2021/12/26 22:24:37;;;;;;;129.80;64.87;;;10.10;65.10;;;;;;10385848;28;20251;-81
2021/12/26 22:29:40;;;;;;;126.27;62.47;;;10.30;65.50;;;;;;10386777;28;20262;-81
2021/12/26 22:34:43;;;;;;;117.57;60.90;;;10.40;65.40;;;;;;10395895;28;20266;-80
2021/12/26 22:39:47;;;;;;;125.50;62.10;;;10.10;66.90;;;;;;10405443;28;20285;-80
2021/12/26 22:44:50;;;;;;;127.73;66.33;;;10.30;66.60;;;;;;10395127;28;20236;-80
2021/12/26 22:49:53;;;;;;;128.67;63.80;;;10.30;67.10;;;;;;10383776;28;20212;-80
2021/12/26 22:54:56;;;;;;;127.27;62.47;;;10.40;67.00;;;;;;10414635;28;20227;-80
2021/12/26 22:59:58;;;;;;;122.67;60.50;;;10.60;66.70;;;;;;10398209;28;20208;-80
2021/12/26 23:05:01;;;;;;;122.63;61.87;;;10.60;66.80;;;;;;10397307;28;20235;-80
2021/12/26 23:10:04;;;;;;;121.13;62.57;;;10.70;67.00;;;;;;10407051;28;20213;-80
2021/12/26 23:15:06;;;;;;;116.80;61.83;;;10.70;67.00;;;;;;10393171;28;20224;-80
2021/12/26 23:20:09;;;;;;;118.50;60.90;;;10.80;67.10;;;;;;10378436;28;20209;-80
2021/12/26 23:25:13;;;;;;;121.00;61.07;;;10.70;67.20;;;;;;10383431;28;20269;-77
2021/12/26 23:30:16;;;;;;;105.07;57.47;;;10.60;67.70;;;;;;10433073;28;20205;-79
2021/12/26 23:35:18;;;;;;;119.33;61.93;;;10.50;67.80;;;;;;10415381;28;20251;-79
2021/12/26 23:40:21;;;;;;;123.00;62.27;;;10.50;68.00;;;;;;10416232;28;20344;-78
2021/12/26 23:45:26;;;;;;;111.60;59.10;;;10.50;68.10;;;;;;10424460;28;20212;-78
2021/12/26 23:50:29;;;;;;;118.63;60.70;;;10.50;68.30;;;;;;10399120;28;20216;-79
2021/12/26 23:55:31;;;;;;;116.90;60.87;;;10.60;68.10;;;;;;10416466;28;20220;-78
